X  Sluiten METAR luchtvaart weer gegevens      EHAM Amsterdam Airport Schiphol
Temperatuur
1°C Temperatuur
1°C Dauwpunt
100% Vochtigheid



Wind
19 KM/U
12 MPH
5 M/S
10 KTS



130°
ZO
Huidig weer

Patches Of Mist, Nevel Patches Of Mist, Nevel
Luchtdruk 1015.92 (hPa) - 30 (inHg)
Zicht 1.2 (mijl) - 2 (km)
Vliegveld
Vliegveld code EHAM

Locatie : Amsterdam Airport Schiphol
Afstand: 40 (km)

Metar:
EHAM 071255Z 13010KT 2000 R18C/2000N R27/1900U R18R/1400N R06/P2000N BCFG BR BKN001 BKN002 01/01 Q1016 BECMG 3000 BKN002

Tijd: 07-12-2023 13:55 CET